Terminal Aerodrome Forecast
Issued by NWS

Home | Current Version | Previous Version | Text Only | Print | Product List | Glossary On
Versions: 1 2 3 4 5 6 7 8 9 10 11 12 13 14 15 16
000
FTUS45 KVEF 221725
TAFEED
TAF
KEED 221725Z 2218/2318 17010KT P6SM -SHRA SCT050 OVC070
     FM230000 16014KT P6SM -RA SCT030 OVC050
     FM230800 26014KT P6SM SCT040 BKN060=

USA.gov is the U.S. government's official web portal to all federal, state and local government web resources and services.